createdAt,value
2022-08-17T00:12:45.805Z,65.85
2022-08-17T00:19:25.289Z,66.27
2022-08-17T00:22:31.733Z,66.81
2022-08-17T00:24:40.419Z,66.79
2022-08-17T00:27:07.521Z,66.42
2022-08-17T00:29:33.947Z,66.37
2022-08-17T00:33:22.800Z,66.23
2022-08-17T00:34:48.765Z,66.12
2022-08-17T00:37:15.471Z,66.26
2022-08-17T00:39:41.885Z,66.27
2022-08-17T00:42:17.136Z,66.67
2022-08-17T00:44:43.512Z,66.13
2022-08-17T00:47:09.922Z,66.32
2022-08-17T00:49:36.352Z,66.44
2022-08-17T00:52:10.788Z,66.36
2022-08-17T00:54:42.000Z,66.68
2022-08-17T00:57:46.752Z,67.31
2022-08-17T01:00:26.816Z,66.90
2022-08-17T01:03:00.306Z,67.88
2022-08-17T01:05:31.189Z,67.06
2022-08-17T01:08:00.259Z,67.12
2022-08-17T01:10:58.417Z,67.47
2022-08-17T01:13:27.661Z,67.81
2022-08-17T01:16:22.825Z,67.92
2022-08-17T01:18:52.068Z,68.35
2022-08-17T01:21:48.820Z,68.56
2022-08-17T01:24:15.990Z,68.42
2022-08-17T01:26:43.922Z,68.90
2022-08-17T01:29:11.670Z,69.05
2022-08-17T01:31:45.455Z,69.37
2022-08-17T01:34:14.251Z,69.37
2022-08-17T01:36:44.631Z,69.16
2022-08-17T01:39:22.730Z,68.64
2022-08-17T01:41:51.701Z,68.08
2022-08-17T01:44:18.111Z,68.17
2022-08-17T01:46:44.540Z,67.91
2022-08-17T01:49:12.038Z,68.57
2022-08-17T01:51:39.403Z,68.05
2022-08-17T01:54:13.665Z,68.25
2022-08-17T01:56:43.393Z,68.51
2022-08-17T01:59:15.016Z,68.40
2022-08-17T02:01:41.872Z,68.70
2022-08-17T02:04:08.487Z,68.57
2022-08-17T02:06:52.360Z,68.21
2022-08-17T02:09:23.995Z,68.36
2022-08-17T02:11:54.045Z,68.02
2022-08-17T02:14:20.768Z,68.00
2022-08-17T02:16:47.167Z,68.42
2022-08-17T02:19:15.976Z,68.07
2022-08-17T02:21:45.628Z,68.38
2022-08-17T02:24:17.621Z,68.71
2022-08-17T02:27:04.432Z,69.33
2022-08-17T02:29:30.923Z,70.08
2022-08-17T02:31:58.513Z,69.99
2022-08-17T02:34:25.739Z,69.64
2022-08-17T02:36:53.370Z,70.27
2022-08-17T02:39:20.189Z,69.77
2022-08-17T02:41:46.687Z,69.93
2022-08-17T02:44:13.513Z,69.83
2022-08-17T02:47:00.417Z,70.13
2022-08-17T02:49:26.827Z,70.26
2022-08-17T02:51:53.264Z,70.11
2022-08-17T02:54:40.852Z,69.98
2022-08-17T02:57:06.185Z,69.65
2022-08-17T02:59:32.800Z,69.75
2022-08-17T03:01:59.269Z,69.98
2022-08-17T03:04:25.819Z,69.86
2022-08-17T03:06:52.344Z,70.75
2022-08-17T03:09:18.796Z,70.88
2022-08-17T03:11:45.309Z,71.31
2022-08-17T03:14:12.435Z,71.50
2022-08-17T03:16:38.910Z,71.79
2022-08-17T03:19:05.734Z,71.23
2022-08-17T03:21:32.218Z,71.11
2022-08-17T03:23:58.673Z,71.22
2022-08-17T03:26:25.107Z,71.42
2022-08-17T03:28:56.052Z,71.96
2022-08-17T03:31:22.507Z,72.40
2022-08-17T03:33:48.928Z,72.15
2022-08-17T03:36:15.498Z,72.25
2022-08-17T03:38:41.911Z,71.80
2022-08-17T03:41:09.326Z,72.11
2022-08-17T03:43:35.806Z,71.86
2022-08-17T03:46:34.698Z,72.14
2022-08-17T03:49:25.191Z,72.51
2022-08-17T03:52:11.038Z,71.93
2022-08-17T03:54:56.375Z,71.85
2022-08-17T03:57:23.850Z,72.34
2022-08-17T03:59:51.735Z,71.98
2022-08-17T04:02:30.580Z,71.89
2022-08-17T04:04:57.684Z,72.37
2022-08-17T04:07:27.387Z,72.62
2022-08-17T04:09:53.942Z,72.65
2022-08-17T04:12:22.338Z,72.50
2022-08-17T04:14:52.568Z,72.74
2022-08-17T04:17:27.391Z,72.60
2022-08-17T04:19:55.050Z,72.86
2022-08-17T04:22:32.508Z,72.84
2022-08-17T04:25:18.683Z,73.01
2022-08-17T04:27:45.171Z,73.04
2022-08-17T04:30:12.304Z,73.55
2022-08-17T04:33:05.746Z,74.66
2022-08-17T04:35:45.690Z,74.27
2022-08-17T04:38:15.169Z,74.34
2022-08-17T04:41:00.997Z,73.63
2022-08-17T04:43:28.428Z,73.71
2022-08-17T04:46:00.947Z,74.50
2022-08-17T04:48:36.159Z,74.44
2022-08-17T04:51:06.036Z,74.18
2022-08-17T04:53:32.556Z,74.10
2022-08-17T04:55:59.082Z,74.27
2022-08-17T04:58:25.856Z,74.12
2022-08-17T05:00:52.344Z,74.17
2022-08-17T05:03:18.837Z,74.18
2022-08-17T05:05:49.530Z,74.48
2022-08-17T05:08:19.177Z,74.90
2022-08-17T05:10:46.888Z,74.56
2022-08-17T05:13:19.753Z,74.22
2022-08-17T05:15:48.134Z,74.59
2022-08-17T05:18:16.022Z,74.89
2022-08-17T05:20:43.408Z,74.88
2022-08-17T05:23:13.403Z,74.83
2022-08-17T05:25:47.748Z,74.54
2022-08-17T05:28:15.251Z,74.57
2022-08-17T05:30:43.988Z,74.76
2022-08-17T05:33:14.761Z,74.91
2022-08-17T05:35:44.430Z,75.37
2022-08-17T05:38:10.908Z,75.74
2022-08-17T05:40:38.294Z,76.14
2022-08-17T05:43:06.131Z,76.87
2022-08-17T05:45:55.703Z,76.29
2022-08-17T05:48:20.382Z,76.28
2022-08-17T05:50:55.603Z,76.17
2022-08-17T05:53:43.921Z,76.02
2022-08-17T05:56:30.235Z,76.42
2022-08-17T05:59:08.741Z,76.61
2022-08-17T06:01:47.873Z,76.54
2022-08-17T06:04:54.788Z,76.17
2022-08-17T06:07:40.698Z,76.14
2022-08-17T06:10:41.552Z,76.41
2022-08-17T06:13:26.113Z,76.88
2022-08-17T06:16:02.998Z,76.74
2022-08-17T06:18:43.722Z,76.62
2022-08-17T06:21:13.265Z,76.82
2022-08-17T06:23:46.170Z,76.81
2022-08-17T06:26:17.417Z,76.42
2022-08-17T06:28:50.582Z,76.64
2022-08-17T06:31:29.113Z,76.86
2022-08-17T06:33:57.922Z,76.34
2022-08-17T06:36:36.120Z,76.29
2022-08-17T06:39:32.204Z,75.61
2022-08-17T06:42:58.807Z,75.33
2022-08-17T06:45:17.485Z,74.41
2022-08-17T06:48:27.860Z,74.07
2022-08-17T06:51:03.675Z,73.26
2022-08-17T06:53:38.803Z,72.69
2022-08-17T06:56:09.248Z,72.63
2022-08-17T06:58:38.809Z,71.94
2022-08-17T07:01:11.226Z,71.32
2022-08-17T07:03:37.962Z,70.83
2022-08-17T07:06:20.923Z,70.74
2022-08-17T07:09:06.077Z,70.01
2022-08-17T07:11:50.320Z,69.32
2022-08-17T07:14:52.780Z,69.70
2022-08-17T07:17:21.984Z,69.35
2022-08-17T07:20:12.868Z,69.17
2022-08-17T07:23:00.438Z,69.36
2022-08-17T07:25:28.006Z,69.35
2022-08-17T07:27:59.803Z,69.68
2022-08-17T07:30:30.563Z,69.59
2022-08-17T07:33:20.607Z,69.70
2022-08-17T07:35:48.353Z,69.70
2022-08-17T07:38:30.287Z,70.04
2022-08-17T07:41:04.852Z,69.99
2022-08-17T07:43:40.893Z,69.63
2022-08-17T07:46:30.475Z,69.24
2022-08-17T07:49:16.797Z,70.36
2022-08-17T07:51:43.208Z,70.34
2022-08-17T07:54:15.724Z,70.42
2022-08-17T07:56:50.886Z,71.15
2022-08-17T07:59:24.192Z,70.15
2022-08-17T08:01:57.992Z,69.70
2022-08-17T08:04:59.532Z,69.42
2022-08-17T08:07:31.820Z,70.61
2022-08-17T08:10:15.073Z,70.63
2022-08-17T08:12:47.678Z,71.11
2022-08-17T08:15:33.205Z,70.66
2022-08-17T08:18:02.896Z,72.80
2022-08-17T08:20:53.435Z,73.79
2022-08-17T08:23:39.503Z,75.05
2022-08-17T08:26:26.316Z,75.74
2022-08-17T08:29:08.424Z,74.75
2022-08-17T08:32:11.314Z,74.83
2022-08-17T08:35:01.128Z,74.25
2022-08-17T08:37:45.359Z,73.44
2022-08-17T08:40:17.754Z,73.79
2022-08-17T08:42:50.226Z,73.82
2022-08-17T08:45:27.015Z,72.67
2022-08-17T08:47:53.541Z,71.49
2022-08-17T08:50:38.778Z,71.08
2022-08-17T08:53:48.589Z,70.39
2022-08-17T08:56:24.971Z,70.24
2022-08-17T08:58:59.356Z,70.15
2022-08-17T09:01:47.660Z,70.81
2022-08-17T09:05:02.679Z,70.61
2022-08-17T09:07:59.029Z,69.39
2022-08-17T09:10:30.391Z,69.31
2022-08-17T09:13:14.663Z,69.04
2022-08-17T09:15:48.419Z,69.59
2022-08-17T09:19:00.093Z,69.13
2022-08-17T09:21:28.607Z,69.26
2022-08-17T09:24:13.904Z,69.27
2022-08-17T09:27:10.759Z,69.55
2022-08-17T09:29:43.519Z,69.47
2022-08-17T09:32:19.226Z,69.46
2022-08-17T09:34:52.612Z,69.65
2022-08-17T09:37:19.188Z,69.70
2022-08-17T09:39:55.441Z,69.22
2022-08-17T09:42:42.571Z,68.77
2022-08-17T09:45:24.232Z,69.16
2022-08-17T09:48:14.663Z,69.75
2022-08-17T09:51:05.646Z,70.13
2022-08-17T09:53:36.142Z,71.00
2022-08-17T09:56:24.145Z,71.01
2022-08-17T09:59:00.402Z,71.69
2022-08-17T10:01:43.112Z,71.31
2022-08-17T10:04:17.753Z,70.58
2022-08-17T10:07:01.861Z,70.51
2022-08-17T10:09:55.655Z,70.75
2022-08-17T10:12:36.606Z,70.00
2022-08-17T10:15:30.662Z,70.77
2022-08-17T10:18:33.104Z,71.02
2022-08-17T10:21:26.551Z,70.47
2022-08-17T10:24:21.613Z,70.49
2022-08-17T10:26:56.053Z,70.70
2022-08-17T10:29:47.277Z,70.52
2022-08-17T10:32:33.492Z,70.54
2022-08-17T10:35:33.857Z,71.01
2022-08-17T10:38:19.526Z,71.04
2022-08-17T10:41:18.674Z,71.65
2022-08-17T10:44:40.457Z,72.18
2022-08-17T10:47:07.096Z,74.09
2022-08-17T10:49:36.680Z,76.72
2022-08-17T10:52:24.845Z,77.00
2022-08-17T10:54:51.463Z,76.43
2022-08-17T10:57:31.580Z,77.67
2022-08-17T11:00:24.316Z,77.77
2022-08-17T11:02:55.843Z,78.57
2022-08-17T11:05:47.278Z,82.97
2022-08-17T11:08:51.327Z,82.88
2022-08-17T11:11:36.518Z,82.59
2022-08-17T11:14:24.840Z,81.46
2022-08-17T11:17:04.926Z,81.41
2022-08-17T11:19:58.703Z,78.76
2022-08-17T11:22:37.191Z,76.70
2022-08-17T11:25:19.609Z,74.56
2022-08-17T11:27:53.556Z,74.98
2022-08-17T11:30:53.978Z,72.88
2022-08-17T11:33:29.139Z,70.35
2022-08-17T11:36:04.060Z,68.79
2022-08-17T11:38:46.134Z,68.86
2022-08-17T11:41:28.640Z,70.82
2022-08-17T11:44:10.454Z,69.40
2022-08-17T11:47:28.309Z,65.73
2022-08-17T11:50:54.672Z,60.92
2022-08-17T11:53:37.132Z,56.36
2022-08-17T11:56:30.155Z,57.56
2022-08-17T11:58:56.614Z,55.44
2022-08-17T12:01:22.958Z,53.58
2022-08-17T12:03:55.938Z,57.12
2022-08-17T12:06:43.828Z,54.69
2022-08-17T12:09:21.287Z,56.69
2022-08-17T12:12:14.821Z,54.15
2022-08-17T12:15:09.435Z,51.92
2022-08-17T12:17:50.273Z,50.74
2022-08-17T12:20:41.802Z,51.88
2022-08-17T12:23:29.790Z,49.40
2022-08-17T12:26:15.108Z,49.82
2022-08-17T12:28:46.652Z,49.48
2022-08-17T12:31:19.482Z,49.32
2022-08-17T12:33:47.436Z,49.58
2022-08-17T12:36:16.657Z,49.91
2022-08-17T12:39:14.272Z,50.88
2022-08-17T12:41:46.856Z,51.87
2022-08-17T12:44:18.126Z,51.36
2022-08-17T12:46:48.205Z,51.79
2022-08-17T12:49:31.327Z,52.35
2022-08-17T12:52:16.851Z,52.85
2022-08-17T12:54:52.476Z,54.40
2022-08-17T12:57:38.949Z,53.59
2022-08-17T13:00:08.734Z,52.94
2022-08-17T13:02:49.037Z,53.19
2022-08-17T13:05:20.910Z,51.69
2022-08-17T13:07:47.654Z,50.51
2022-08-17T13:10:21.459Z,51.07
2022-08-17T13:12:50.942Z,51.48
2022-08-17T13:15:34.984Z,51.14
2022-08-17T13:18:39.392Z,52.75
2022-08-17T13:21:12.795Z,52.48
2022-08-17T13:23:39.605Z,51.92
2022-08-17T13:26:16.191Z,51.05
2022-08-17T13:28:51.065Z,50.34
2022-08-17T13:31:49.809Z,50.54
2022-08-17T13:34:26.732Z,52.10
2022-08-17T13:37:34.642Z,51.43
2022-08-17T13:40:10.545Z,49.64
2022-08-17T13:42:51.557Z,50.58
2022-08-17T13:45:35.711Z,53.03
2022-08-17T13:48:30.008Z,52.37
2022-08-17T13:50:56.404Z,51.64
2022-08-17T13:53:22.759Z,50.80
2022-08-17T13:56:37.950Z,51.04
2022-08-17T13:59:11.323Z,50.27
2022-08-17T14:01:53.158Z,50.84
2022-08-17T14:04:31.504Z,50.21
2022-08-17T14:07:13.221Z,49.83
2022-08-17T14:09:55.184Z,50.78
2022-08-17T14:12:25.056Z,51.29
2022-08-17T14:14:52.876Z,50.89
2022-08-17T14:17:19.498Z,50.69
2022-08-17T14:19:45.905Z,51.08
2022-08-17T14:22:23.604Z,51.76
2022-08-17T14:24:51.291Z,50.75
2022-08-17T14:27:20.440Z,49.66
2022-08-17T14:29:47.913Z,48.50
2022-08-17T14:32:20.217Z,48.41
2022-08-17T14:34:49.471Z,48.21
2022-08-17T14:37:17.555Z,48.64
2022-08-17T14:39:44.159Z,48.74
2022-08-17T14:42:11.433Z,49.57
2022-08-17T14:44:39.304Z,49.24
2022-08-17T14:47:11.811Z,50.33
2022-08-17T14:49:38.207Z,49.77
2022-08-17T14:52:04.792Z,49.41
2022-08-17T14:54:34.214Z,50.42
2022-08-17T14:57:04.663Z,50.26
2022-08-17T14:59:55.171Z,49.67
2022-08-17T15:02:29.381Z,50.47
2022-08-17T15:05:01.993Z,50.53
2022-08-17T15:07:30.915Z,50.22
2022-08-17T15:10:00.392Z,50.01
2022-08-17T15:12:32.009Z,49.75
2022-08-17T15:15:00.559Z,49.42
2022-08-17T15:17:27.072Z,50.05
2022-08-17T15:20:15.685Z,50.08
2022-08-17T15:22:43.529Z,49.94
2022-08-17T15:25:11.056Z,49.81
2022-08-17T15:27:37.622Z,49.13
2022-08-17T15:30:09.342Z,49.79
2022-08-17T15:32:38.670Z,49.75
2022-08-17T15:35:07.404Z,48.86
2022-08-17T15:37:33.804Z,49.32
2022-08-17T15:40:03.646Z,49.58
2022-08-17T15:42:30.145Z,49.88
2022-08-17T15:44:56.913Z,50.10
2022-08-17T15:47:24.298Z,49.64
2022-08-17T15:49:50.789Z,49.45
2022-08-17T15:52:24.071Z,49.61
2022-08-17T15:55:00.497Z,49.59
2022-08-17T15:57:27.462Z,49.67
2022-08-17T15:59:58.902Z,49.60
2022-08-17T16:03:44.411Z,49.62
2022-08-17T16:05:22.004Z,49.41
2022-08-17T16:07:52.074Z,49.68
2022-08-17T16:10:19.492Z,49.53
2022-08-17T16:12:47.714Z,49.45
2022-08-17T16:15:14.563Z,49.54
2022-08-17T16:17:43.840Z,49.74
2022-08-17T16:20:19.950Z,49.73
2022-08-17T16:22:48.934Z,50.04
2022-08-17T16:25:18.841Z,49.80
2022-08-17T16:27:48.131Z,50.00
2022-08-17T16:30:17.685Z,50.68
2022-08-17T16:32:46.312Z,50.29
2022-08-17T16:35:17.320Z,50.35
2022-08-17T16:37:45.670Z,50.50
2022-08-17T16:40:13.857Z,50.46
2022-08-17T16:42:40.879Z,49.82
2022-08-17T16:45:11.668Z,50.10
2022-08-17T16:47:38.154Z,49.85
2022-08-17T16:50:06.448Z,49.95
2022-08-17T16:52:33.510Z,50.24
2022-08-17T16:55:02.282Z,49.68
2022-08-17T16:57:29.688Z,49.63
2022-08-17T16:59:56.901Z,49.37
2022-08-17T17:02:27.630Z,50.00
2022-08-17T17:05:07.012Z,50.67
2022-08-17T17:07:45.701Z,50.51
2022-08-17T17:10:24.027Z,49.78
2022-08-17T17:13:02.808Z,49.49
2022-08-17T17:15:45.610Z,49.53
2022-08-17T17:18:14.664Z,49.41
2022-08-17T17:20:55.796Z,49.50
2022-08-17T17:23:37.523Z,49.33
2022-08-17T17:26:03.962Z,50.16
2022-08-17T17:28:43.872Z,50.33
2022-08-17T17:31:23.731Z,50.42
2022-08-17T17:33:56.168Z,50.47
2022-08-17T17:36:30.074Z,50.34
2022-08-17T17:39:24.902Z,49.92
2022-08-17T17:41:53.956Z,50.39
2022-08-17T17:44:28.602Z,51.02
2022-08-17T17:46:59.288Z,50.67
2022-08-17T17:49:28.041Z,50.74
2022-08-17T17:52:19.266Z,50.83
2022-08-17T17:55:04.584Z,50.99
2022-08-17T17:58:00.550Z,51.04
2022-08-17T18:00:39.007Z,51.20
2022-08-17T18:03:24.409Z,51.30
2022-08-17T18:06:13.607Z,51.50
2022-08-17T18:08:53.151Z,51.52
2022-08-17T18:11:39.448Z,52.03
2022-08-17T18:14:37.306Z,52.21
2022-08-17T18:17:04.131Z,52.88
2022-08-17T18:19:31.792Z,53.63
2022-08-17T18:22:14.229Z,54.29
2022-08-17T18:24:44.058Z,54.32
2022-08-17T18:27:29.266Z,54.24
2022-08-17T18:29:57.523Z,54.59
2022-08-17T18:32:37.676Z,54.62
2022-08-17T18:35:16.240Z,55.15
2022-08-17T18:37:44.921Z,55.04
2022-08-17T18:40:17.680Z,55.31
2022-08-17T18:42:45.795Z,55.15
2022-08-17T18:45:13.180Z,55.32
2022-08-17T18:47:54.751Z,55.40
2022-08-17T18:50:24.635Z,55.12
2022-08-17T18:52:51.432Z,55.51
2022-08-17T18:55:23.605Z,55.73
2022-08-17T18:57:53.222Z,55.87
2022-08-17T19:00:31.946Z,56.24
2022-08-17T19:03:01.808Z,56.28
2022-08-17T19:05:35.047Z,56.75
2022-08-17T19:08:20.980Z,56.57
2022-08-17T19:10:51.222Z,57.01
2022-08-17T19:13:23.264Z,57.25
2022-08-17T19:16:10.086Z,57.60
2022-08-17T19:18:52.008Z,57.50
2022-08-17T19:21:23.866Z,57.95
2022-08-17T19:23:54.512Z,58.29
2022-08-17T19:26:54.419Z,58.55
2022-08-17T19:29:57.811Z,58.77
2022-08-17T19:32:31.946Z,59.18
2022-08-17T19:34:58.432Z,59.15
2022-08-17T19:37:36.898Z,59.25
2022-08-17T19:40:09.321Z,59.26
2022-08-17T19:42:47.588Z,60.06
2022-08-17T19:45:34.663Z,59.82
2022-08-17T19:48:18.447Z,60.09
2022-08-17T19:50:56.291Z,60.29
2022-08-17T19:54:06.262Z,60.24
2022-08-17T19:57:22.446Z,60.67
2022-08-17T20:00:23.857Z,61.23
2022-08-17T20:03:16.163Z,61.24
2022-08-17T20:06:11.532Z,61.27
2022-08-17T20:08:41.342Z,61.19
2022-08-17T20:11:16.874Z,61.31
2022-08-17T20:13:49.586Z,61.59
2022-08-17T20:16:18.304Z,61.18
2022-08-17T20:19:03.540Z,61.50
2022-08-17T20:21:41.687Z,61.59
2022-08-17T20:24:19.832Z,61.88
2022-08-17T20:27:05.180Z,61.97
2022-08-17T20:30:00.442Z,61.49
2022-08-17T20:32:30.515Z,61.98
2022-08-17T20:35:19.457Z,62.04
2022-08-17T20:38:36.141Z,62.07
2022-08-17T20:41:03.028Z,61.70
2022-08-17T20:43:32.750Z,62.17
2022-08-17T20:46:17.715Z,62.39
2022-08-17T20:48:48.468Z,62.20
2022-08-17T20:51:22.656Z,62.43
2022-08-17T20:53:49.078Z,62.48
2022-08-17T20:56:43.385Z,62.67
2022-08-17T20:59:30.598Z,62.95
2022-08-17T21:02:12.422Z,63.03
2022-08-17T21:04:52.618Z,63.09
2022-08-17T21:07:43.580Z,63.33
2022-08-17T21:10:18.015Z,63.64
2022-08-17T21:15:36.295Z,63.65
2022-08-17T21:18:11.835Z,63.52
2022-08-17T21:21:12.989Z,63.55
2022-08-17T21:24:11.869Z,63.65
2022-08-17T21:27:16.278Z,63.92
2022-08-17T21:30:01.448Z,64.46
2022-08-17T21:32:40.442Z,64.82
2022-08-17T21:35:12.082Z,64.76
2022-08-17T21:37:53.115Z,64.58
2022-08-17T21:40:26.257Z,64.97
2022-08-17T21:42:58.142Z,64.87
2022-08-17T21:45:31.681Z,64.92
2022-08-17T21:48:16.962Z,65.36
2022-08-17T21:50:55.744Z,65.38
2022-08-17T21:53:32.227Z,65.29
2022-08-17T21:55:59.734Z,65.02
2022-08-17T21:58:33.826Z,65.46
2022-08-17T22:01:23.703Z,65.41
2022-08-17T22:04:12.016Z,65.56
2022-08-17T22:06:52.354Z,65.95
2022-08-17T22:09:49.939Z,65.58
2022-08-17T22:12:22.672Z,65.83
2022-08-17T22:14:55.240Z,65.82
2022-08-17T22:17:46.019Z,65.73
2022-08-17T22:20:17.227Z,66.11
2022-08-17T22:23:08.443Z,66.17
2022-08-17T22:25:37.942Z,66.29
2022-08-17T22:28:07.499Z,66.41
2022-08-17T22:30:38.799Z,66.17
2022-08-17T22:33:44.008Z,66.32
2022-08-17T22:36:24.985Z,66.31
2022-08-17T22:38:57.698Z,66.48
2022-08-17T22:41:31.915Z,66.86
2022-08-17T22:44:07.287Z,66.74
2022-08-17T22:46:39.267Z,66.82
2022-08-17T22:49:06.244Z,66.89
2022-08-17T22:51:33.046Z,66.71
2022-08-17T22:54:20.600Z,66.85
2022-08-17T22:57:12.010Z,66.54
2022-08-17T22:59:49.544Z,66.99
2022-08-17T23:02:24.901Z,67.09
2022-08-17T23:05:15.724Z,67.21
2022-08-17T23:07:45.148Z,67.72
2022-08-17T23:10:13.212Z,67.27
2022-08-17T23:12:39.974Z,67.70
2022-08-17T23:15:18.921Z,67.40
2022-08-17T23:17:46.285Z,67.67
2022-08-17T23:20:15.433Z,67.75
2022-08-17T23:22:52.092Z,67.63
2022-08-17T23:25:29.317Z,67.97
2022-08-17T23:27:58.343Z,68.16
2022-08-17T23:30:25.537Z,68.50
2022-08-17T23:32:54.275Z,68.41
2022-08-17T23:35:39.917Z,68.01
2022-08-17T23:38:11.571Z,68.30
2022-08-17T23:40:39.263Z,68.56
2022-08-17T23:43:24.723Z,68.71
2022-08-17T23:45:57.297Z,69.52
2022-08-17T23:48:27.794Z,69.82
2022-08-17T23:51:05.683Z,69.17
2022-08-17T23:53:34.647Z,69.33
2022-08-17T23:56:09.091Z,69.35
2022-08-17T23:58:38.459Z,69.37
